Terminal Aerodrome Forecast
Issued by NWS

Home | Current Version | Previous Version | Text Only | Print | Product List | Glossary On
Versions: 1 2 3 4 5 6 7 8 9 10 11 12 13 14 15
000
FTUS43 KIND 241720
TAFBMG
TAF
KBMG 241720Z 2418/2518 20014KT P6SM FEW250
     FM250700 22009KT P6SM BKN250
     FM251000 25006KT P6SM SCT200
     FM251200 29006KT P6SM SCT150
     FM251500 32008KT P6SM FEW250=

USA.gov is the U.S. government's official web portal to all federal, state and local government web resources and services.